aviador You're here:

LEZL Decoded Metar

SEVILLA in SPAIN
Report Time2018-01-21 22:30:00
UTC Time2018-01-21 22:37:12
Flight Rules vfr VFR
WindCalm
Visibility9999 m
Phenomena:N/A
Clouds:N/A
Expected CloudBase > 400 ft AGL from Temp-Dew spread
CeilingNone
Temp10°C (ISA -5)
Dew Point09°C (94% RH)
AAT9.8°C
QNH1030 hPa
Density Alt-892 ft
Elevation102 ft
Report Wrong Elevation
Raw Report
METAR LEZL 212230Z 00000KT CAVOK 10/09 Q1030 NOSIG=

Extra information for LEZL:More info

Metar Taf Metar & Taf Last 4 Metars F.Rules Stats Wind Profile Meteogram Temp Stats Airport Information Weather charts Add Link Nearby VenuesMetar ALERT Operation Metar Decoded Social comments